Check out our new PWSWeather beta!
PWSweather.com
Personal Weather Stations
Station Observations
GIRWX1
Presovsky Kraj, GiraltovceSK

Presovsky KrajGiraltovceSK

Lat: 49.118, Lon: 21.52

Elevation: 630

Station Type: wh1080

http://www.meteogiraltovce.wz.cz/

High Low Average
Temperature 57.9°F14.4°C 43.8°F6.6°C 50.9°F10.5°C
Dew Point 50.1°F10.1°C 39.2°F4.0°C 44.9°F7.2°C
Winds 15.5 mph 24.9 kmh 2.2 mph 3.5 kmh 9.0 mph S14.5 kmh S
Wind Gusts 23.5 mph37.8 kmh 3.1 mph5.0 kmh 14.0 mph22.5 kmh
Humidity 85% 72% 80%
Pressure 29.72 in1006.4 mb 29.47 in998.0 mb -
Precipitation 0.00 in0.0 mm - -
Hour Temp Dew Point Humidity Winds Wind Gusts Pressure Precip Precip Rate Daily Precip Total
12:00 AM 43.8°F6.6°C 39.2°F4.0°C 84% 4.7 mph SSW7.6 kmh SSW 7.6 mph12.2 kmh 29.72 in1006.4 mb 0.00 in0.0 mm 0.00 in0.0 mm 0.00 in0.0 mm
12:05 AM 43.9°F6.6°C 39.4°F4.1°C 84% 2.2 mph SE3.5 kmh SE 3.1 mph5.0 kmh 29.72 in1006.4 mb 0.00 in0.0 mm 0.00 in0.0 mm 0.00 in0.0 mm
12:10 AM 43.9°F6.6°C 39.4°F4.1°C 84% 4.0 mph S6.4 kmh S 7.6 mph12.2 kmh 29.72 in1006.4 mb 0.00 in0.0 mm 0.00 in0.0 mm 0.00 in0.0 mm
12:15 AM 44.1°F6.7°C 39.5°F4.2°C 84% 6.6 mph S10.6 kmh S 10.7 mph17.2 kmh 29.72 in1006.4 mb 0.00 in0.0 mm 0.00 in0.0 mm 0.00 in0.0 mm
12:20 AM 44.1°F6.7°C 39.6°F4.2°C 84% 6.3 mph S10.1 kmh S 15.2 mph24.5 kmh 29.72 in1006.4 mb 0.00 in0.0 mm 0.00 in0.0 mm 0.00 in0.0 mm
12:25 AM 44.2°F6.8°C 39.7°F4.3°C 84% 10.4 mph SSE16.7 kmh SSE 16.8 mph27.0 kmh 29.72 in1006.4 mb 0.00 in0.0 mm 0.00 in0.0 mm 0.00 in0.0 mm
12:30 AM 44.3°F6.8°C 39.8°F4.3°C 84% 11.8 mph SSE19.0 kmh SSE 15.9 mph25.6 kmh 29.72 in1006.4 mb 0.00 in0.0 mm 0.00 in0.0 mm 0.00 in0.0 mm
12:35 AM 44.4°F6.9°C 39.9°F4.4°C 84% 11.4 mph S18.3 kmh S 15.9 mph25.6 kmh 29.72 in1006.4 mb 0.00 in0.0 mm 0.00 in0.0 mm 0.00 in0.0 mm
12:40 AM 44.4°F6.9°C 39.9°F4.4°C 84% 11.0 mph SSE17.7 kmh SSE 14.5 mph23.3 kmh 29.72 in1006.4 mb 0.00 in0.0 mm 0.00 in0.0 mm 0.00 in0.0 mm
12:45 AM 44.4°F6.9°C 39.9°F4.4°C 84% 9.0 mph SSE14.5 kmh SSE 13.6 mph21.9 kmh 29.71 in1006.1 mb 0.00 in0.0 mm 0.00 in0.0 mm 0.00 in0.0 mm
12:50 AM 44.4°F6.9°C 39.9°F4.4°C 84% 9.3 mph WSW15.0 kmh WSW 13.0 mph20.9 kmh 29.71 in1006.1 mb 0.00 in0.0 mm 0.00 in0.0 mm 0.00 in0.0 mm
12:55 AM 44.4°F6.9°C 39.9°F4.4°C 84% 8.3 mph SSE13.4 kmh SSE 13.0 mph20.9 kmh 29.71 in1006.1 mb 0.00 in0.0 mm 0.00 in0.0 mm 0.00 in0.0 mm
01:00 AM 44.4°F6.9°C 39.9°F4.4°C 84% 9.2 mph SSE14.8 kmh SSE 15.2 mph24.5 kmh 29.71 in1006.1 mb 0.00 in0.0 mm 0.00 in0.0 mm 0.00 in0.0 mm
01:05 AM 44.5°F6.9°C 39.9°F4.4°C 84% 9.5 mph SSE15.3 kmh SSE 15.2 mph24.5 kmh 29.71 in1006.1 mb 0.00 in0.0 mm 0.00 in0.0 mm 0.00 in0.0 mm
01:10 AM 44.6°F7.0°C 40.1°F4.5°C 84% 9.5 mph S15.3 kmh S 15.9 mph25.6 kmh 29.71 in1006.1 mb 0.00 in0.0 mm 0.00 in0.0 mm 0.00 in0.0 mm
01:15 AM 44.6°F7.0°C 40.1°F4.5°C 84% 12.2 mph S19.6 kmh S 16.8 mph27.0 kmh 29.71 in1006.1 mb 0.00 in0.0 mm 0.00 in0.0 mm 0.00 in0.0 mm
01:20 AM 44.6°F7.0°C 40.1°F4.5°C 84% 11.4 mph SSW18.3 kmh SSW 15.9 mph25.6 kmh 29.71 in1006.1 mb 0.00 in0.0 mm 0.00 in0.0 mm 0.00 in0.0 mm
01:25 AM 44.6°F7.0°C 40.1°F4.5°C 84% 7.8 mph SE12.6 kmh SE 13.6 mph21.9 kmh 29.70 in1005.8 mb 0.00 in0.0 mm 0.00 in0.0 mm 0.00 in0.0 mm
01:30 AM 44.6°F7.0°C 40.1°F4.5°C 84% 7.4 mph S11.9 kmh S 10.7 mph17.2 kmh 29.70 in1005.8 mb 0.00 in0.0 mm 0.00 in0.0 mm 0.00 in0.0 mm
01:35 AM 44.6°F7.0°C 40.1°F4.5°C 84% 8.0 mph SSE12.9 kmh SSE 13.0 mph20.9 kmh 29.70 in1005.8 mb 0.00 in0.0 mm 0.00 in0.0 mm 0.00 in0.0 mm
01:40 AM 44.6°F7.0°C 40.1°F4.5°C 84% 9.4 mph S15.1 kmh S 13.6 mph21.9 kmh 29.70 in1005.8 mb 0.00 in0.0 mm 0.00 in0.0 mm 0.00 in0.0 mm
01:45 AM 44.6°F7.0°C 40.1°F4.5°C 84% 8.6 mph S13.8 kmh S 13.0 mph20.9 kmh 29.70 in1005.8 mb 0.00 in0.0 mm 0.00 in0.0 mm 0.00 in0.0 mm
01:50 AM 44.6°F7.0°C 40.1°F4.5°C 84% 7.3 mph S11.7 kmh S 12.1 mph19.5 kmh 29.69 in1005.4 mb 0.00 in0.0 mm 0.00 in0.0 mm 0.00 in0.0 mm
01:55 AM 44.7°F7.1°C 40.4°F4.7°C 85% 6.4 mph S10.3 kmh S 9.2 mph14.8 kmh 29.69 in1005.4 mb 0.00 in0.0 mm 0.00 in0.0 mm 0.00 in0.0 mm
02:00 AM 44.8°F7.1°C 40.6°F4.8°C 85% 5.8 mph S9.3 kmh S 12.1 mph19.5 kmh 29.69 in1005.4 mb 0.00 in0.0 mm 0.00 in0.0 mm 0.00 in0.0 mm
02:05 AM 44.8°F7.1°C 40.6°F4.8°C 85% 10.7 mph S17.2 kmh S 11.4 mph18.3 kmh 29.69 in1005.4 mb 0.00 in0.0 mm 0.00 in0.0 mm 0.00 in0.0 mm
02:10 AM 44.8°F7.1°C 40.6°F4.8°C 85% 9.9 mph S15.9 kmh S 16.8 mph27.0 kmh 29.69 in1005.4 mb 0.00 in0.0 mm 0.00 in0.0 mm 0.00 in0.0 mm
02:15 AM 44.9°F7.2°C 40.7°F4.8°C 85% 7.8 mph SSE12.6 kmh SSE 13.6 mph21.9 kmh 29.68 in1005.1 mb 0.00 in0.0 mm 0.00 in0.0 mm 0.00 in0.0 mm
02:20 AM 45.0°F7.2°C 40.6°F4.8°C 85% 8.7 mph SSE14.0 kmh SSE 13.6 mph21.9 kmh 29.68 in1005.1 mb 0.00 in0.0 mm 0.00 in0.0 mm 0.00 in0.0 mm
02:25 AM 45.1°F7.3°C 40.6°F4.8°C 84% 6.9 mph S11.1 kmh S 13.6 mph21.9 kmh 29.68 in1005.1 mb 0.00 in0.0 mm 0.00 in0.0 mm 0.00 in0.0 mm
02:30 AM 45.1°F7.3°C 40.6°F4.8°C 84% 8.5 mph S13.7 kmh S 12.1 mph19.5 kmh 29.68 in1005.1 mb 0.00 in0.0 mm 0.00 in0.0 mm 0.00 in0.0 mm
02:35 AM 45.3°F7.4°C 40.7°F4.8°C 84% 7.8 mph SSW12.6 kmh SSW 12.1 mph19.5 kmh 29.68 in1005.1 mb 0.00 in0.0 mm 0.00 in0.0 mm 0.00 in0.0 mm
02:40 AM 45.3°F7.4°C 40.8°F4.9°C 84% 8.0 mph S12.9 kmh S 12.1 mph19.5 kmh 29.67 in1004.7 mb 0.00 in0.0 mm 0.00 in0.0 mm 0.00 in0.0 mm
02:45 AM 45.4°F7.4°C 40.9°F4.9°C 84% 6.0 mph SE9.7 kmh SE 10.7 mph17.2 kmh 29.67 in1004.7 mb 0.00 in0.0 mm 0.00 in0.0 mm 0.00 in0.0 mm
02:50 AM 45.5°F7.5°C 41.0°F5.0°C 84% 10.1 mph S16.3 kmh S 14.5 mph23.3 kmh 29.67 in1004.7 mb 0.00 in0.0 mm 0.00 in0.0 mm 0.00 in0.0 mm
02:55 AM 45.5°F7.5°C 41.0°F5.0°C 84% 11.6 mph SSE18.7 kmh SSE 16.8 mph27.0 kmh 29.67 in1004.7 mb 0.00 in0.0 mm 0.00 in0.0 mm 0.00 in0.0 mm
03:00 AM 45.6°F7.6°C 41.0°F5.0°C 84% 10.4 mph S16.7 kmh S 15.9 mph25.6 kmh 29.67 in1004.7 mb 0.00 in0.0 mm 0.00 in0.0 mm 0.00 in0.0 mm
03:05 AM 45.7°F7.6°C 41.1°F5.1°C 84% 8.8 mph S14.2 kmh S 15.9 mph25.6 kmh 29.67 in1004.7 mb 0.00 in0.0 mm 0.00 in0.0 mm 0.00 in0.0 mm
03:10 AM 45.7°F7.6°C 41.1°F5.1°C 84% 7.7 mph S12.4 kmh S 13.6 mph21.9 kmh 29.67 in1004.7 mb 0.00 in0.0 mm 0.00 in0.0 mm 0.00 in0.0 mm
03:15 AM 45.7°F7.6°C 41.1°F5.1°C 84% 6.8 mph SSW10.9 kmh SSW 13.0 mph20.9 kmh 29.67 in1004.7 mb 0.00 in0.0 mm 0.00 in0.0 mm 0.00 in0.0 mm
03:20 AM 45.7°F7.6°C 40.7°F4.8°C 83% 7.9 mph S12.7 kmh S 13.0 mph20.9 kmh 29.67 in1004.7 mb 0.00 in0.0 mm 0.00 in0.0 mm 0.00 in0.0 mm
03:25 AM 45.9°F7.7°C 39.7°F4.3°C 79% 6.9 mph SSE11.1 kmh SSE 11.4 mph18.3 kmh 29.67 in1004.7 mb 0.00 in0.0 mm 0.00 in0.0 mm 0.00 in0.0 mm
03:30 AM 45.9°F7.7°C 39.7°F4.3°C 79% 7.9 mph SSW12.7 kmh SSW 12.1 mph19.5 kmh 29.66 in1004.4 mb 0.00 in0.0 mm 0.00 in0.0 mm 0.00 in0.0 mm
03:35 AM 45.9°F7.7°C 39.7°F4.3°C 79% 6.6 mph S10.6 kmh S 9.8 mph15.8 kmh 29.66 in1004.4 mb 0.00 in0.0 mm 0.00 in0.0 mm 0.00 in0.0 mm
03:40 AM 45.9°F7.7°C 39.7°F4.3°C 79% 8.2 mph SSW13.2 kmh SSW 14.5 mph23.3 kmh 29.66 in1004.4 mb 0.00 in0.0 mm 0.00 in0.0 mm 0.00 in0.0 mm
03:45 AM 46.0°F7.8°C 39.8°F4.3°C 79% 10.2 mph S16.4 kmh S 14.5 mph23.3 kmh 29.66 in1004.4 mb 0.00 in0.0 mm 0.00 in0.0 mm 0.00 in0.0 mm
03:50 AM 46.0°F7.8°C 39.9°F4.4°C 79% 11.1 mph S17.9 kmh S 18.3 mph29.5 kmh 29.66 in1004.4 mb 0.00 in0.0 mm 0.00 in0.0 mm 0.00 in0.0 mm
03:55 AM 46.0°F7.8°C 39.9°F4.4°C 79% 7.4 mph S11.9 kmh S 9.8 mph15.8 kmh 29.66 in1004.4 mb 0.00 in0.0 mm 0.00 in0.0 mm 0.00 in0.0 mm
04:00 AM 46.2°F7.9°C 40.1°F4.5°C 79% 10.0 mph S16.1 kmh S 13.6 mph21.9 kmh 29.66 in1004.4 mb 0.00 in0.0 mm 0.00 in0.0 mm 0.00 in0.0 mm
04:05 AM 46.2°F7.9°C 40.1°F4.5°C 79% 8.3 mph S13.4 kmh S 9.8 mph15.8 kmh 29.66 in1004.4 mb 0.00 in0.0 mm 0.00 in0.0 mm 0.00 in0.0 mm
04:10 AM 46.3°F7.9°C 40.2°F4.6°C 79% 10.1 mph S16.3 kmh S 17.4 mph28.0 kmh 29.66 in1004.4 mb 0.00 in0.0 mm 0.00 in0.0 mm 0.00 in0.0 mm
04:15 AM 46.6°F8.1°C 40.4°F4.7°C 79% 9.1 mph S14.6 kmh S 17.4 mph28.0 kmh 29.66 in1004.4 mb 0.00 in0.0 mm 0.00 in0.0 mm 0.00 in0.0 mm
04:20 AM 46.6°F8.1°C 40.5°F4.7°C 79% 10.5 mph S16.9 kmh S 14.5 mph23.3 kmh 29.66 in1004.4 mb 0.00 in0.0 mm 0.00 in0.0 mm 0.00 in0.0 mm
04:25 AM 46.8°F8.2°C 40.8°F4.9°C 80% 7.5 mph S12.1 kmh S 13.0 mph20.9 kmh 29.65 in1004.1 mb 0.00 in0.0 mm 0.00 in0.0 mm 0.00 in0.0 mm
04:30 AM 46.8°F8.2°C 40.7°F4.8°C 79% 9.0 mph S14.5 kmh S 12.1 mph19.5 kmh 29.66 in1004.4 mb 0.00 in0.0 mm 0.00 in0.0 mm 0.00 in0.0 mm
04:35 AM 46.9°F8.3°C 40.8°F4.9°C 79% 5.6 mph SSW9.0 kmh SSW 8.3 mph13.4 kmh 29.65 in1004.1 mb 0.00 in0.0 mm 0.00 in0.0 mm 0.00 in0.0 mm
04:40 AM 46.9°F8.3°C 40.8°F4.9°C 79% 7.5 mph S12.1 kmh S 11.4 mph18.3 kmh 29.66 in1004.4 mb 0.00 in0.0 mm 0.00 in0.0 mm 0.00 in0.0 mm
04:45 AM 46.9°F8.3°C 40.8°F4.9°C 79% 6.2 mph S10.0 kmh S 9.2 mph14.8 kmh 29.65 in1004.1 mb 0.00 in0.0 mm 0.00 in0.0 mm 0.00 in0.0 mm
04:50 AM 46.9°F8.3°C 40.8°F4.9°C 79% 5.7 mph S9.2 kmh S 8.3 mph13.4 kmh 29.65 in1004.1 mb 0.00 in0.0 mm 0.00 in0.0 mm 0.00 in0.0 mm
04:55 AM 47.0°F8.3°C 40.8°F4.9°C 79% 6.6 mph SSW10.6 kmh SSW 10.7 mph17.2 kmh 29.65 in1004.1 mb 0.00 in0.0 mm 0.00 in0.0 mm 0.00 in0.0 mm
05:00 AM 47.1°F8.4°C 40.9°F4.9°C 79% 6.7 mph S10.8 kmh S 9.8 mph15.8 kmh 29.64 in1003.7 mb 0.00 in0.0 mm 0.00 in0.0 mm 0.00 in0.0 mm
05:05 AM 47.1°F8.4°C 40.9°F4.9°C 79% 9.2 mph S14.8 kmh S 15.2 mph24.5 kmh 29.64 in1003.7 mb 0.00 in0.0 mm 0.00 in0.0 mm 0.00 in0.0 mm
05:10 AM 47.1°F8.4°C 40.9°F4.9°C 79% 7.7 mph S12.4 kmh S 10.7 mph17.2 kmh 29.65 in1004.1 mb 0.00 in0.0 mm 0.00 in0.0 mm 0.00 in0.0 mm
05:15 AM 47.1°F8.4°C 41.0°F5.0°C 79% 5.8 mph SSE9.3 kmh SSE 9.2 mph14.8 kmh 29.64 in1003.7 mb 0.00 in0.0 mm 0.00 in0.0 mm 0.00 in0.0 mm
05:20 AM 47.2°F8.4°C 41.0°F5.0°C 79% 7.2 mph S11.6 kmh S 12.1 mph19.5 kmh 29.65 in1004.1 mb 0.00 in0.0 mm 0.00 in0.0 mm 0.00 in0.0 mm
05:25 AM 47.1°F8.4°C 41.0°F5.0°C 79% 5.3 mph SSW8.5 kmh SSW 8.3 mph13.4 kmh 29.65 in1004.1 mb 0.00 in0.0 mm 0.00 in0.0 mm 0.00 in0.0 mm
05:30 AM 47.3°F8.5°C 41.1°F5.1°C 79% 4.9 mph S7.9 kmh S 7.6 mph12.2 kmh 29.65 in1004.1 mb 0.00 in0.0 mm 0.00 in0.0 mm 0.00 in0.0 mm
05:35 AM 47.3°F8.5°C 41.1°F5.1°C 79% 4.4 mph S7.1 kmh S 7.6 mph12.2 kmh 29.65 in1004.1 mb 0.00 in0.0 mm 0.00 in0.0 mm 0.00 in0.0 mm
05:40 AM 47.3°F8.5°C 41.1°F5.1°C 79% 3.3 mph S5.3 kmh S 5.4 mph8.7 kmh 29.65 in1004.1 mb 0.00 in0.0 mm 0.00 in0.0 mm 0.00 in0.0 mm
05:45 AM 47.3°F8.5°C 41.1°F5.1°C 79% 3.2 mph S5.1 kmh S 6.0 mph9.7 kmh 29.64 in1003.7 mb 0.00 in0.0 mm 0.00 in0.0 mm 0.00 in0.0 mm
05:50 AM 47.3°F8.5°C 41.2°F5.1°C 79% 6.0 mph SW9.7 kmh SW 10.7 mph17.2 kmh 29.64 in1003.7 mb 0.00 in0.0 mm 0.00 in0.0 mm 0.00 in0.0 mm
05:55 AM 47.3°F8.5°C 41.4°F5.2°C 80% 3.4 mph SSE5.5 kmh SSE 5.4 mph8.7 kmh 29.65 in1004.1 mb 0.00 in0.0 mm 0.00 in0.0 mm 0.00 in0.0 mm
06:00 AM 47.3°F8.5°C 41.4°F5.2°C 80% 3.5 mph S5.6 kmh S 5.4 mph8.7 kmh 29.64 in1003.7 mb 0.00 in0.0 mm 0.00 in0.0 mm 0.00 in0.0 mm
06:05 AM 47.3°F8.5°C 41.4°F5.2°C 80% 11.4 mph S18.3 kmh S 12.1 mph19.5 kmh 29.65 in1004.1 mb 0.00 in0.0 mm 0.00 in0.0 mm 0.00 in0.0 mm
06:10 AM 47.3°F8.5°C 41.4°F5.2°C 80% 5.7 mph S9.2 kmh S 12.1 mph19.5 kmh 29.65 in1004.1 mb 0.00 in0.0 mm 0.00 in0.0 mm 0.00 in0.0 mm
06:15 AM 47.3°F8.5°C 41.4°F5.2°C 80% 7.6 mph SSE12.2 kmh SSE 13.0 mph20.9 kmh 29.65 in1004.1 mb 0.00 in0.0 mm 0.00 in0.0 mm 0.00 in0.0 mm
06:20 AM 47.3°F8.5°C 41.4°F5.2°C 80% 5.5 mph SSE8.9 kmh SSE 7.6 mph12.2 kmh 29.64 in1003.7 mb 0.00 in0.0 mm 0.00 in0.0 mm 0.00 in0.0 mm
06:25 AM 47.3°F8.5°C 41.4°F5.2°C 80% 6.2 mph SSE10.0 kmh SSE 9.8 mph15.8 kmh 29.65 in1004.1 mb 0.00 in0.0 mm 0.00 in0.0 mm 0.00 in0.0 mm
06:30 AM 47.3°F8.5°C 41.4°F5.2°C 80% 7.4 mph S11.9 kmh S 16.8 mph27.0 kmh 29.65 in1004.1 mb 0.00 in0.0 mm 0.00 in0.0 mm 0.00 in0.0 mm
06:35 AM 47.4°F8.6°C 41.6°F5.3°C 80% 8.1 mph S13.0 kmh S 11.4 mph18.3 kmh 29.65 in1004.1 mb 0.00 in0.0 mm 0.00 in0.0 mm 0.00 in0.0 mm
06:40 AM 47.5°F8.6°C 41.6°F5.3°C 80% 7.5 mph S12.1 kmh S 11.4 mph18.3 kmh 29.64 in1003.7 mb 0.00 in0.0 mm 0.00 in0.0 mm 0.00 in0.0 mm
06:45 AM 47.5°F8.6°C 41.6°F5.3°C 80% 6.3 mph S10.1 kmh S 11.4 mph18.3 kmh 29.64 in1003.7 mb 0.00 in0.0 mm 0.00 in0.0 mm 0.00 in0.0 mm
06:50 AM 47.4°F8.6°C 41.6°F5.3°C 80% 10.0 mph S16.1 kmh S 13.6 mph21.9 kmh 29.65 in1004.1 mb 0.00 in0.0 mm 0.00 in0.0 mm 0.00 in0.0 mm
06:55 AM 47.3°F8.5°C 41.6°F5.3°C 80% 7.2 mph S11.6 kmh S 14.5 mph23.3 kmh 29.65 in1004.1 mb 0.00 in0.0 mm 0.00 in0.0 mm 0.00 in0.0 mm
07:00 AM 47.3°F8.5°C 41.8°F5.4°C 81% 10.1 mph SSE16.3 kmh SSE 19.0 mph30.6 kmh 29.65 in1004.1 mb 0.00 in0.0 mm 0.00 in0.0 mm 0.00 in0.0 mm
07:05 AM 47.4°F8.6°C 41.8°F5.4°C 81% 8.1 mph SSE13.0 kmh SSE 13.0 mph20.9 kmh 29.65 in1004.1 mb 0.00 in0.0 mm 0.00 in0.0 mm 0.00 in0.0 mm
07:10 AM 47.5°F8.6°C 41.9°F5.5°C 81% 9.8 mph S15.8 kmh S 16.8 mph27.0 kmh 29.65 in1004.1 mb 0.00 in0.0 mm 0.00 in0.0 mm 0.00 in0.0 mm
07:15 AM 47.5°F8.6°C 41.9°F5.5°C 81% 10.4 mph S16.7 kmh S 16.8 mph27.0 kmh 29.65 in1004.1 mb 0.00 in0.0 mm 0.00 in0.0 mm 0.00 in0.0 mm
07:20 AM 47.5°F8.6°C 41.9°F5.5°C 81% 12.5 mph S20.1 kmh S 19.0 mph30.6 kmh 29.64 in1003.7 mb 0.00 in0.0 mm 0.00 in0.0 mm 0.00 in0.0 mm
07:25 AM 47.5°F8.6°C 42.0°F5.6°C 81% 11.0 mph SSE17.7 kmh SSE 16.8 mph27.0 kmh 29.64 in1003.7 mb 0.00 in0.0 mm 0.00 in0.0 mm 0.00 in0.0 mm
07:30 AM 47.7°F8.7°C 42.1°F5.6°C 81% 11.6 mph SSE18.7 kmh SSE 17.4 mph28.0 kmh 29.64 in1003.7 mb 0.00 in0.0 mm 0.00 in0.0 mm 0.00 in0.0 mm
07:35 AM 47.7°F8.7°C 42.1°F5.6°C 81% 13.5 mph SSE21.7 kmh SSE 18.3 mph29.5 kmh 29.64 in1003.7 mb 0.00 in0.0 mm 0.00 in0.0 mm 0.00 in0.0 mm
07:40 AM 47.7°F8.7°C 42.1°F5.6°C 81% 8.8 mph SW14.2 kmh SW 17.4 mph28.0 kmh 29.64 in1003.7 mb 0.00 in0.0 mm 0.00 in0.0 mm 0.00 in0.0 mm
07:45 AM 47.8°F8.8°C 42.3°F5.7°C 81% 5.1 mph SSE8.2 kmh SSE 8.3 mph13.4 kmh 29.64 in1003.7 mb 0.00 in0.0 mm 0.00 in0.0 mm 0.00 in0.0 mm
07:50 AM 47.8°F8.8°C 42.3°F5.7°C 81% 6.6 mph SSE10.6 kmh SSE 10.7 mph17.2 kmh 29.64 in1003.7 mb 0.00 in0.0 mm 0.00 in0.0 mm 0.00 in0.0 mm
07:55 AM 47.8°F8.8°C 42.3°F5.7°C 81% 9.9 mph SSE15.9 kmh SSE 19.0 mph30.6 kmh 29.65 in1004.1 mb 0.00 in0.0 mm 0.00 in0.0 mm 0.00 in0.0 mm
08:00 AM 47.8°F8.8°C 42.3°F5.7°C 81% 5.5 mph SE8.9 kmh SE 11.4 mph18.3 kmh 29.64 in1003.7 mb 0.00 in0.0 mm 0.00 in0.0 mm 0.00 in0.0 mm
08:05 AM 47.8°F8.8°C 42.3°F5.7°C 81% 3.1 mph W5.0 kmh W 3.8 mph6.1 kmh 29.64 in1003.7 mb 0.00 in0.0 mm 0.00 in0.0 mm 0.00 in0.0 mm
08:10 AM 48.0°F8.9°C 42.4°F5.8°C 81% 6.6 mph SSW10.6 kmh SSW 12.1 mph19.5 kmh 29.64 in1003.7 mb 0.00 in0.0 mm 0.00 in0.0 mm 0.00 in0.0 mm
08:15 AM 48.0°F8.9°C 42.5°F5.8°C 81% 8.3 mph S13.4 kmh S 14.5 mph23.3 kmh 29.64 in1003.7 mb 0.00 in0.0 mm 0.00 in0.0 mm 0.00 in0.0 mm
08:20 AM 48.0°F8.9°C 42.5°F5.8°C 81% 7.1 mph SSE11.4 kmh SSE 18.3 mph29.5 kmh 29.64 in1003.7 mb 0.00 in0.0 mm 0.00 in0.0 mm 0.00 in0.0 mm
08:25 AM 48.0°F8.9°C 42.5°F5.8°C 81% 11.7 mph SSE18.8 kmh SSE 18.3 mph29.5 kmh 29.64 in1003.7 mb 0.00 in0.0 mm 0.00 in0.0 mm 0.00 in0.0 mm
08:30 AM 48.2°F9.0°C 42.6°F5.9°C 81% 10.8 mph SE17.4 kmh SE 16.8 mph27.0 kmh 29.64 in1003.7 mb 0.00 in0.0 mm 0.00 in0.0 mm 0.00 in0.0 mm
08:35 AM 48.2°F9.0°C 42.6°F5.9°C 81% 7.9 mph S12.7 kmh S 12.1 mph19.5 kmh 29.64 in1003.7 mb 0.00 in0.0 mm 0.00 in0.0 mm 0.00 in0.0 mm
08:40 AM 48.2°F9.0°C 42.7°F5.9°C 81% 8.6 mph S13.8 kmh S 18.3 mph29.5 kmh 29.64 in1003.7 mb 0.00 in0.0 mm 0.00 in0.0 mm 0.00 in0.0 mm
08:45 AM 48.4°F9.1°C 42.8°F6.0°C 81% 7.7 mph S12.4 kmh S 11.4 mph18.3 kmh 29.64 in1003.7 mb 0.00 in0.0 mm 0.00 in0.0 mm 0.00 in0.0 mm
08:50 AM 48.4°F9.1°C 42.8°F6.0°C 81% 8.6 mph SSE13.8 kmh SSE 13.6 mph21.9 kmh 29.64 in1003.7 mb 0.00 in0.0 mm 0.00 in0.0 mm 0.00 in0.0 mm
08:55 AM 48.4°F9.1°C 42.8°F6.0°C 81% 8.4 mph SE13.5 kmh SE 13.6 mph21.9 kmh 29.64 in1003.7 mb 0.00 in0.0 mm 0.00 in0.0 mm 0.00 in0.0 mm
09:00 AM 48.4°F9.1°C 42.8°F6.0°C 81% 10.2 mph SSE16.4 kmh SSE 15.2 mph24.5 kmh 29.64 in1003.7 mb 0.00 in0.0 mm 0.00 in0.0 mm 0.00 in0.0 mm
09:05 AM 48.4°F9.1°C 42.8°F6.0°C 81% 9.5 mph S15.3 kmh S 15.2 mph24.5 kmh 29.64 in1003.7 mb 0.00 in0.0 mm 0.00 in0.0 mm 0.00 in0.0 mm
09:10 AM 48.4°F9.1°C 42.8°F6.0°C 81% 9.2 mph S14.8 kmh S 13.0 mph20.9 kmh 29.64 in1003.7 mb 0.00 in0.0 mm 0.00 in0.0 mm 0.00 in0.0 mm
09:15 AM 48.4°F9.1°C 42.8°F6.0°C 81% 8.0 mph S12.9 kmh S 16.8 mph27.0 kmh 29.64 in1003.7 mb 0.00 in0.0 mm 0.00 in0.0 mm 0.00 in0.0 mm
09:20 AM 48.4°F9.1°C 42.8°F6.0°C 81% 10.4 mph S16.7 kmh S 16.8 mph27.0 kmh 29.64 in1003.7 mb 0.00 in0.0 mm 0.00 in0.0 mm 0.00 in0.0 mm
09:25 AM 48.4°F9.1°C 43.1°F6.2°C 82% 5.2 mph S8.4 kmh S 11.4 mph18.3 kmh 29.63 in1003.4 mb 0.00 in0.0 mm 0.00 in0.0 mm 0.00 in0.0 mm
09:30 AM 48.4°F9.1°C 43.1°F6.2°C 82% 6.9 mph SSE11.1 kmh SSE 13.0 mph20.9 kmh 29.63 in1003.4 mb 0.00 in0.0 mm 0.00 in0.0 mm 0.00 in0.0 mm
09:35 AM 48.4°F9.1°C 43.1°F6.2°C 82% 10.7 mph SSE17.2 kmh SSE 15.2 mph24.5 kmh 29.63 in1003.4 mb 0.00 in0.0 mm 0.00 in0.0 mm 0.00 in0.0 mm
09:40 AM 48.4°F9.1°C 43.1°F6.2°C 82% 12.2 mph SSE19.6 kmh SSE 18.3 mph29.5 kmh 29.63 in1003.4 mb 0.00 in0.0 mm 0.00 in0.0 mm 0.00 in0.0 mm
09:45 AM 48.4°F9.1°C 43.2°F6.2°C 82% 12.4 mph SE20.0 kmh SE 18.3 mph29.5 kmh 29.63 in1003.4 mb 0.00 in0.0 mm 0.00 in0.0 mm 0.00 in0.0 mm
09:50 AM 48.6°F9.2°C 43.3°F6.3°C 82% 11.2 mph S18.0 kmh S 15.2 mph24.5 kmh 29.63 in1003.4 mb 0.00 in0.0 mm 0.00 in0.0 mm 0.00 in0.0 mm
09:55 AM 48.6°F9.2°C 43.4°F6.3°C 82% 12.6 mph SSE20.3 kmh SSE 16.8 mph27.0 kmh 29.62 in1003.0 mb 0.00 in0.0 mm 0.00 in0.0 mm 0.00 in0.0 mm
10:00 AM 48.8°F9.3°C 43.5°F6.4°C 82% 13.9 mph SSE22.4 kmh SSE 19.0 mph30.6 kmh 29.62 in1003.0 mb 0.00 in0.0 mm 0.00 in0.0 mm 0.00 in0.0 mm
10:05 AM 48.9°F9.4°C 43.7°F6.5°C 82% 14.5 mph S23.3 kmh S 18.3 mph29.5 kmh 29.62 in1003.0 mb 0.00 in0.0 mm 0.00 in0.0 mm 0.00 in0.0 mm
10:10 AM 49.1°F9.5°C 43.9°F6.6°C 82% 12.4 mph S20.0 kmh S 18.3 mph29.5 kmh 29.62 in1003.0 mb 0.00 in0.0 mm 0.00 in0.0 mm 0.00 in0.0 mm
10:15 AM 49.3°F9.6°C 44.0°F6.7°C 82% 11.9 mph SE19.2 kmh SE 15.9 mph25.6 kmh 29.62 in1003.0 mb 0.00 in0.0 mm 0.00 in0.0 mm 0.00 in0.0 mm
10:20 AM 49.5°F9.7°C 44.0°F6.7°C 81% 8.7 mph S14.0 kmh S 13.0 mph20.9 kmh 29.62 in1003.0 mb 0.00 in0.0 mm 0.00 in0.0 mm 0.00 in0.0 mm
10:25 AM 49.8°F9.9°C 44.2°F6.8°C 81% 13.3 mph SSE21.4 kmh SSE 19.0 mph30.6 kmh 29.61 in1002.7 mb 0.00 in0.0 mm 0.00 in0.0 mm 0.00 in0.0 mm
10:30 AM 50.0°F10.0°C 44.4°F6.9°C 81% 13.4 mph SSE21.6 kmh SSE 19.0 mph30.6 kmh 29.62 in1003.0 mb 0.00 in0.0 mm 0.00 in0.0 mm 0.00 in0.0 mm
10:35 AM 50.2°F10.1°C 44.4°F6.9°C 80% 11.9 mph S19.2 kmh S 16.8 mph27.0 kmh 29.61 in1002.7 mb 0.00 in0.0 mm 0.00 in0.0 mm 0.00 in0.0 mm
10:40 AM 50.4°F10.2°C 44.4°F6.9°C 80% 12.5 mph S20.1 kmh S 19.0 mph30.6 kmh 29.61 in1002.7 mb 0.00 in0.0 mm 0.00 in0.0 mm 0.00 in0.0 mm
10:45 AM 50.4°F10.2°C 44.4°F6.9°C 80% 14.0 mph SSE22.5 kmh SSE 18.3 mph29.5 kmh 29.61 in1002.7 mb 0.00 in0.0 mm 0.00 in0.0 mm 0.00 in0.0 mm
10:50 AM 50.5°F10.3°C 44.6°F7.0°C 80% 13.3 mph SE21.4 kmh SE 19.0 mph30.6 kmh 29.60 in1002.4 mb 0.00 in0.0 mm 0.00 in0.0 mm 0.00 in0.0 mm
10:55 AM 50.7°F10.4°C 44.8°F7.1°C 80% 12.2 mph S19.6 kmh S 19.0 mph30.6 kmh 29.60 in1002.4 mb 0.00 in0.0 mm 0.00 in0.0 mm 0.00 in0.0 mm
11:00 AM 50.9°F10.5°C 44.9°F7.2°C 80% 11.3 mph S18.2 kmh S 21.3 mph34.3 kmh 29.60 in1002.4 mb 0.00 in0.0 mm 0.00 in0.0 mm 0.00 in0.0 mm
11:05 AM 51.1°F10.6°C 45.1°F7.3°C 80% 12.6 mph S20.3 kmh S 21.3 mph34.3 kmh 29.60 in1002.4 mb 0.00 in0.0 mm 0.00 in0.0 mm 0.00 in0.0 mm
11:10 AM 51.1°F10.6°C 44.9°F7.2°C 79% 11.9 mph S19.2 kmh S 17.4 mph28.0 kmh 29.59 in1002.0 mb 0.00 in0.0 mm 0.00 in0.0 mm 0.00 in0.0 mm
11:15 AM 51.1°F10.6°C 44.8°F7.1°C 79% 10.0 mph SSE16.1 kmh SSE 15.2 mph24.5 kmh 29.59 in1002.0 mb 0.00 in0.0 mm 0.00 in0.0 mm 0.00 in0.0 mm
11:20 AM 51.2°F10.7°C 45.1°F7.3°C 80% 8.0 mph SSE12.9 kmh SSE 10.7 mph17.2 kmh 29.59 in1002.0 mb 0.00 in0.0 mm 0.00 in0.0 mm 0.00 in0.0 mm
11:25 AM 51.5°F10.8°C 45.5°F7.5°C 80% 8.7 mph S14.0 kmh S 13.6 mph21.9 kmh 29.59 in1002.0 mb 0.00 in0.0 mm 0.00 in0.0 mm 0.00 in0.0 mm
11:30 AM 51.6°F10.9°C 45.5°F7.5°C 79% 8.0 mph SSE12.9 kmh SSE 11.4 mph18.3 kmh 29.59 in1002.0 mb 0.00 in0.0 mm 0.00 in0.0 mm 0.00 in0.0 mm
11:35 AM 51.6°F10.9°C 45.3°F7.4°C 79% 10.4 mph S16.7 kmh S 19.0 mph30.6 kmh 29.59 in1002.0 mb 0.00 in0.0 mm 0.00 in0.0 mm 0.00 in0.0 mm
11:40 AM 51.8°F11.0°C 45.2°F7.3°C 78% 9.3 mph S15.0 kmh S 16.8 mph27.0 kmh 29.59 in1002.0 mb 0.00 in0.0 mm 0.00 in0.0 mm 0.00 in0.0 mm
11:45 AM 52.0°F11.1°C 45.3°F7.4°C 78% 13.1 mph S21.1 kmh S 19.7 mph31.7 kmh 29.58 in1001.7 mb 0.00 in0.0 mm 0.00 in0.0 mm 0.00 in0.0 mm
11:50 AM 51.9°F11.1°C 45.0°F7.2°C 77% 13.6 mph S21.9 kmh S 19.7 mph31.7 kmh 29.58 in1001.7 mb 0.00 in0.0 mm 0.00 in0.0 mm 0.00 in0.0 mm
11:55 AM 51.8°F11.0°C 45.0°F7.2°C 77% 12.0 mph SSE19.3 kmh SSE 17.4 mph28.0 kmh 29.58 in1001.7 mb 0.00 in0.0 mm 0.00 in0.0 mm 0.00 in0.0 mm
12:00 PM 51.8°F11.0°C 45.2°F7.3°C 78% 9.0 mph S14.5 kmh S 13.6 mph21.9 kmh 29.57 in1001.4 mb 0.00 in0.0 mm 0.00 in0.0 mm 0.00 in0.0 mm
12:05 PM 52.0°F11.1°C 45.3°F7.4°C 78% 13.0 mph S20.9 kmh S 14.5 mph23.3 kmh 29.57 in1001.4 mb 0.00 in0.0 mm 0.00 in0.0 mm 0.00 in0.0 mm
12:10 PM 52.3°F11.3°C 45.6°F7.6°C 78% 10.6 mph S17.1 kmh S 15.9 mph25.6 kmh 29.57 in1001.4 mb 0.00 in0.0 mm 0.00 in0.0 mm 0.00 in0.0 mm
12:15 PM 52.6°F11.4°C 45.6°F7.6°C 77% 8.1 mph S13.0 kmh S 11.4 mph18.3 kmh 29.58 in1001.7 mb 0.00 in0.0 mm 0.00 in0.0 mm 0.00 in0.0 mm
12:20 PM 52.8°F11.6°C 45.8°F7.7°C 77% 10.4 mph SSW16.7 kmh SSW 15.2 mph24.5 kmh 29.58 in1001.7 mb 0.00 in0.0 mm 0.00 in0.0 mm 0.00 in0.0 mm
12:25 PM 52.9°F11.6°C 45.9°F7.7°C 77% 10.0 mph S16.1 kmh S 14.5 mph23.3 kmh 29.57 in1001.4 mb 0.00 in0.0 mm 0.00 in0.0 mm 0.00 in0.0 mm
12:30 PM 52.9°F11.6°C 45.6°F7.6°C 76% 10.6 mph SW17.1 kmh SW 16.8 mph27.0 kmh 29.57 in1001.4 mb 0.00 in0.0 mm 0.00 in0.0 mm 0.00 in0.0 mm
12:35 PM 52.9°F11.6°C 45.5°F7.5°C 76% 8.3 mph S13.4 kmh S 12.1 mph19.5 kmh 29.57 in1001.4 mb 0.00 in0.0 mm 0.00 in0.0 mm 0.00 in0.0 mm
12:40 PM 52.9°F11.6°C 45.7°F7.6°C 77% 10.2 mph S16.4 kmh S 15.9 mph25.6 kmh 29.57 in1001.4 mb 0.00 in0.0 mm 0.00 in0.0 mm 0.00 in0.0 mm
12:45 PM 52.8°F11.6°C 45.7°F7.6°C 77% 8.7 mph SSW14.0 kmh SSW 14.5 mph23.3 kmh 29.58 in1001.7 mb 0.00 in0.0 mm 0.00 in0.0 mm 0.00 in0.0 mm
12:50 PM 52.7°F11.5°C 45.7°F7.6°C 77% 8.4 mph S13.5 kmh S 13.0 mph20.9 kmh 29.57 in1001.4 mb 0.00 in0.0 mm 0.00 in0.0 mm 0.00 in0.0 mm
12:55 PM 52.6°F11.4°C 45.6°F7.6°C 77% 9.8 mph S15.8 kmh S 15.9 mph25.6 kmh 29.57 in1001.4 mb 0.00 in0.0 mm 0.00 in0.0 mm 0.00 in0.0 mm
01:00 PM 52.5°F11.4°C 45.5°F7.5°C 77% 9.4 mph S15.1 kmh S 15.9 mph25.6 kmh 29.57 in1001.4 mb 0.00 in0.0 mm 0.00 in0.0 mm 0.00 in0.0 mm
01:05 PM 52.5°F11.4°C 45.5°F7.5°C 77% 8.3 mph SSW13.4 kmh SSW 9.8 mph15.8 kmh 29.57 in1001.4 mb 0.00 in0.0 mm 0.00 in0.0 mm 0.00 in0.0 mm
01:10 PM 52.5°F11.4°C 45.7°F7.6°C 78% 8.5 mph S13.7 kmh S 14.5 mph23.3 kmh 29.56 in1001.0 mb 0.00 in0.0 mm 0.00 in0.0 mm 0.00 in0.0 mm
01:15 PM 52.5°F11.4°C 46.0°F7.8°C 78% 9.1 mph S14.6 kmh S 16.8 mph27.0 kmh 29.56 in1001.0 mb 0.00 in0.0 mm 0.00 in0.0 mm 0.00 in0.0 mm
01:20 PM 52.6°F11.4°C 46.2°F7.9°C 79% 11.3 mph SE18.2 kmh SE 15.9 mph25.6 kmh 29.56 in1001.0 mb 0.00 in0.0 mm 0.00 in0.0 mm 0.00 in0.0 mm
01:25 PM 52.7°F11.5°C 46.4°F8.0°C 79% 10.1 mph SSE16.3 kmh SSE 17.4 mph28.0 kmh 29.56 in1001.0 mb 0.00 in0.0 mm 0.00 in0.0 mm 0.00 in0.0 mm
01:30 PM 52.8°F11.6°C 46.5°F8.1°C 79% 9.8 mph SSW15.8 kmh SSW 17.4 mph28.0 kmh 29.56 in1001.0 mb 0.00 in0.0 mm 0.00 in0.0 mm 0.00 in0.0 mm
01:35 PM 52.9°F11.6°C 46.5°F8.1°C 79% 10.3 mph SSE16.6 kmh SSE 17.4 mph28.0 kmh 29.56 in1001.0 mb 0.00 in0.0 mm 0.00 in0.0 mm 0.00 in0.0 mm
01:40 PM 53.0°F11.7°C 46.7°F8.2°C 79% 11.6 mph SSE18.7 kmh SSE 19.7 mph31.7 kmh 29.55 in1000.7 mb 0.00 in0.0 mm 0.00 in0.0 mm 0.00 in0.0 mm
01:45 PM 53.1°F11.7°C 46.7°F8.2°C 79% 14.3 mph S23.0 kmh S 22.1 mph35.6 kmh 29.55 in1000.7 mb 0.00 in0.0 mm 0.00 in0.0 mm 0.00 in0.0 mm
01:50 PM 53.1°F11.7°C 46.7°F8.2°C 79% 12.1 mph SSE19.5 kmh SSE 19.0 mph30.6 kmh 29.55 in1000.7 mb 0.00 in0.0 mm 0.00 in0.0 mm 0.00 in0.0 mm
01:55 PM 53.1°F11.7°C 46.7°F8.2°C 79% 15.5 mph S24.9 kmh S 19.7 mph31.7 kmh 29.55 in1000.7 mb 0.00 in0.0 mm 0.00 in0.0 mm 0.00 in0.0 mm
02:00 PM 53.1°F11.7°C 46.7°F8.2°C 79% 11.9 mph S19.2 kmh S 17.4 mph28.0 kmh 29.55 in1000.7 mb 0.00 in0.0 mm 0.00 in0.0 mm 0.00 in0.0 mm
02:05 PM 53.1°F11.7°C 46.7°F8.2°C 79% 7.6 mph S12.2 kmh S 9.2 mph14.8 kmh 29.56 in1001.0 mb 0.00 in0.0 mm 0.00 in0.0 mm 0.00 in0.0 mm
02:10 PM 53.2°F11.8°C 46.8°F8.2°C 79% 7.3 mph SSE11.7 kmh SSE 11.4 mph18.3 kmh 29.56 in1001.0 mb 0.00 in0.0 mm 0.00 in0.0 mm 0.00 in0.0 mm
02:15 PM 53.2°F11.8°C 47.2°F8.4°C 80% 10.0 mph SE16.1 kmh SE 14.5 mph23.3 kmh 29.56 in1001.0 mb 0.00 in0.0 mm 0.00 in0.0 mm 0.00 in0.0 mm
02:20 PM 53.2°F11.8°C 47.2°F8.4°C 80% 7.2 mph SSE11.6 kmh SSE 12.1 mph19.5 kmh 29.56 in1001.0 mb 0.00 in0.0 mm 0.00 in0.0 mm 0.00 in0.0 mm
02:25 PM 53.2°F11.8°C 47.2°F8.4°C 80% 8.2 mph S13.2 kmh S 12.1 mph19.5 kmh 29.57 in1001.4 mb 0.00 in0.0 mm 0.00 in0.0 mm 0.00 in0.0 mm
02:30 PM 53.1°F11.7°C 47.1°F8.4°C 80% 9.2 mph S14.8 kmh S 13.0 mph20.9 kmh 29.56 in1001.0 mb 0.00 in0.0 mm 0.00 in0.0 mm 0.00 in0.0 mm
02:35 PM 53.1°F11.7°C 47.1°F8.4°C 80% 9.3 mph SSE15.0 kmh SSE 13.0 mph20.9 kmh 29.56 in1001.0 mb 0.00 in0.0 mm 0.00 in0.0 mm 0.00 in0.0 mm
02:40 PM 53.1°F11.7°C 47.1°F8.4°C 80% 7.6 mph SE12.2 kmh SE 11.4 mph18.3 kmh 29.56 in1001.0 mb 0.00 in0.0 mm 0.00 in0.0 mm 0.00 in0.0 mm
02:45 PM 53.0°F11.7°C 47.0°F8.3°C 80% 5.3 mph SSW8.5 kmh SSW 9.8 mph15.8 kmh 29.56 in1001.0 mb 0.00 in0.0 mm 0.00 in0.0 mm 0.00 in0.0 mm
02:50 PM 52.9°F11.6°C 46.9°F8.3°C 80% 6.2 mph S10.0 kmh S 10.7 mph17.2 kmh 29.56 in1001.0 mb 0.00 in0.0 mm 0.00 in0.0 mm 0.00 in0.0 mm
02:55 PM 52.9°F11.6°C 47.1°F8.4°C 81% 7.1 mph S11.4 kmh S 11.4 mph18.3 kmh 29.56 in1001.0 mb 0.00 in0.0 mm 0.00 in0.0 mm 0.00 in0.0 mm
03:00 PM 52.9°F11.6°C 47.2°F8.4°C 81% 3.8 mph WSW6.1 kmh WSW 7.6 mph12.2 kmh 29.55 in1000.7 mb 0.00 in0.0 mm 0.00 in0.0 mm 0.00 in0.0 mm
03:05 PM 52.9°F11.6°C 47.2°F8.4°C 81% 4.6 mph SSW7.4 kmh SSW 13.0 mph20.9 kmh 29.55 in1000.7 mb 0.00 in0.0 mm 0.00 in0.0 mm 0.00 in0.0 mm
03:10 PM 52.9°F11.6°C 47.2°F8.4°C 81% 5.1 mph SSW8.2 kmh SSW 10.7 mph17.2 kmh 29.55 in1000.7 mb 0.00 in0.0 mm 0.00 in0.0 mm 0.00 in0.0 mm
03:15 PM 52.9°F11.6°C 47.3°F8.5°C 81% 5.4 mph S8.7 kmh S 10.7 mph17.2 kmh 29.55 in1000.7 mb 0.00 in0.0 mm 0.00 in0.0 mm 0.00 in0.0 mm
03:20 PM 53.1°F11.7°C 47.7°F8.7°C 82% 7.9 mph S12.7 kmh S 11.4 mph18.3 kmh 29.55 in1000.7 mb 0.00 in0.0 mm 0.00 in0.0 mm 0.00 in0.0 mm
03:25 PM 53.1°F11.7°C 47.7°F8.7°C 82% 9.8 mph S15.8 kmh S 13.6 mph21.9 kmh 29.55 in1000.7 mb 0.00 in0.0 mm 0.00 in0.0 mm 0.00 in0.0 mm
03:30 PM 53.2°F11.8°C 47.8°F8.8°C 82% 9.1 mph S14.6 kmh S 13.6 mph21.9 kmh 29.55 in1000.7 mb 0.00 in0.0 mm 0.00 in0.0 mm 0.00 in0.0 mm
03:35 PM 53.4°F11.9°C 48.0°F8.9°C 82% 11.5 mph SSE18.5 kmh SSE 18.3 mph29.5 kmh 29.55 in1000.7 mb 0.00 in0.0 mm 0.00 in0.0 mm 0.00 in0.0 mm
03:40 PM 53.5°F11.9°C 48.1°F8.9°C 82% 8.2 mph SSE13.2 kmh SSE 13.6 mph21.9 kmh 29.54 in1000.3 mb 0.00 in0.0 mm 0.00 in0.0 mm 0.00 in0.0 mm
03:45 PM 53.6°F12.0°C 48.2°F9.0°C 82% 7.2 mph S11.6 kmh S 13.6 mph21.9 kmh 29.54 in1000.3 mb 0.00 in0.0 mm 0.00 in0.0 mm 0.00 in0.0 mm
03:50 PM 53.7°F12.1°C 48.3°F9.1°C 82% 9.9 mph S15.9 kmh S 19.0 mph30.6 kmh 29.55 in1000.7 mb 0.00 in0.0 mm 0.00 in0.0 mm 0.00 in0.0 mm
03:55 PM 53.8°F12.1°C 48.4°F9.1°C 82% 8.9 mph S14.3 kmh S 13.0 mph20.9 kmh 29.55 in1000.7 mb 0.00 in0.0 mm 0.00 in0.0 mm 0.00 in0.0 mm
04:00 PM 53.8°F12.1°C 48.5°F9.2°C 82% 9.8 mph S15.8 kmh S 14.5 mph23.3 kmh 29.55 in1000.7 mb 0.00 in0.0 mm 0.00 in0.0 mm 0.00 in0.0 mm
04:05 PM 53.8°F12.1°C 48.4°F9.1°C 82% 8.3 mph S13.4 kmh S 10.7 mph17.2 kmh 29.55 in1000.7 mb 0.00 in0.0 mm 0.00 in0.0 mm 0.00 in0.0 mm
04:10 PM 53.9°F12.2°C 48.5°F9.2°C 82% 8.8 mph S14.2 kmh S 15.9 mph25.6 kmh 29.55 in1000.7 mb 0.00 in0.0 mm 0.00 in0.0 mm 0.00 in0.0 mm
04:15 PM 54.0°F12.2°C 48.6°F9.2°C 82% 8.3 mph S13.4 kmh S 13.0 mph20.9 kmh 29.55 in1000.7 mb 0.00 in0.0 mm 0.00 in0.0 mm 0.00 in0.0 mm
04:20 PM 54.0°F12.2°C 48.6°F9.2°C 82% 6.8 mph S10.9 kmh S 10.7 mph17.2 kmh 29.55 in1000.7 mb 0.00 in0.0 mm 0.00 in0.0 mm 0.00 in0.0 mm
04:25 PM 54.0°F12.2°C 48.6°F9.2°C 82% 8.4 mph SSE13.5 kmh SSE 13.0 mph20.9 kmh 29.55 in1000.7 mb 0.00 in0.0 mm 0.00 in0.0 mm 0.00 in0.0 mm
04:30 PM 54.0°F12.2°C 48.8°F9.3°C 83% 6.8 mph SSE10.9 kmh SSE 9.8 mph15.8 kmh 29.55 in1000.7 mb 0.00 in0.0 mm 0.00 in0.0 mm 0.00 in0.0 mm
04:35 PM 54.0°F12.2°C 48.9°F9.4°C 83% 5.7 mph S9.2 kmh S 9.8 mph15.8 kmh 29.55 in1000.7 mb 0.00 in0.0 mm 0.00 in0.0 mm 0.00 in0.0 mm
04:40 PM 54.0°F12.2°C 48.9°F9.4°C 83% 6.6 mph S10.6 kmh S 12.1 mph19.5 kmh 29.55 in1000.7 mb 0.00 in0.0 mm 0.00 in0.0 mm 0.00 in0.0 mm
04:45 PM 54.0°F12.2°C 48.9°F9.4°C 83% 4.0 mph S6.4 kmh S 6.9 mph11.1 kmh 29.55 in1000.7 mb 0.00 in0.0 mm 0.00 in0.0 mm 0.00 in0.0 mm
04:50 PM 54.0°F12.2°C 48.9°F9.4°C 83% 6.4 mph S10.3 kmh S 10.7 mph17.2 kmh 29.55 in1000.7 mb 0.00 in0.0 mm 0.00 in0.0 mm 0.00 in0.0 mm
04:55 PM 54.0°F12.2°C 48.9°F9.4°C 83% 5.9 mph SSW9.5 kmh SSW 9.8 mph15.8 kmh 29.55 in1000.7 mb 0.00 in0.0 mm 0.00 in0.0 mm 0.00 in0.0 mm
05:00 PM 54.0°F12.2°C 48.9°F9.4°C 83% 5.9 mph S9.5 kmh S 11.4 mph18.3 kmh 29.55 in1000.7 mb 0.00 in0.0 mm 0.00 in0.0 mm 0.00 in0.0 mm
05:05 PM 54.0°F12.2°C 48.9°F9.4°C 83% 8.0 mph SE12.9 kmh SE 13.0 mph20.9 kmh 29.55 in1000.7 mb 0.00 in0.0 mm 0.00 in0.0 mm 0.00 in0.0 mm
05:10 PM 54.0°F12.2°C 49.1°F9.5°C 83% 9.6 mph SSE15.4 kmh SSE 12.1 mph19.5 kmh 29.55 in1000.7 mb 0.00 in0.0 mm 0.00 in0.0 mm 0.00 in0.0 mm
05:15 PM 54.0°F12.2°C 49.2°F9.6°C 84% 7.3 mph S11.7 kmh S 10.7 mph17.2 kmh 29.55 in1000.7 mb 0.00 in0.0 mm 0.00 in0.0 mm 0.00 in0.0 mm
05:20 PM 54.0°F12.2°C 49.3°F9.6°C 84% 6.9 mph S11.1 kmh S 12.1 mph19.5 kmh 29.55 in1000.7 mb 0.00 in0.0 mm 0.00 in0.0 mm 0.00 in0.0 mm
05:25 PM 54.1°F12.3°C 49.4°F9.7°C 84% 8.4 mph S13.5 kmh S 14.5 mph23.3 kmh 29.55 in1000.7 mb 0.00 in0.0 mm 0.00 in0.0 mm 0.00 in0.0 mm
05:30 PM 54.1°F12.3°C 49.4°F9.7°C 84% 8.7 mph SSW14.0 kmh SSW 14.5 mph23.3 kmh 29.55 in1000.7 mb 0.00 in0.0 mm 0.00 in0.0 mm 0.00 in0.0 mm
05:35 PM 54.1°F12.3°C 49.4°F9.7°C 84% 9.0 mph S14.5 kmh S 12.1 mph19.5 kmh 29.55 in1000.7 mb 0.00 in0.0 mm 0.00 in0.0 mm 0.00 in0.0 mm
05:40 PM 54.1°F12.3°C 49.4°F9.7°C 84% 6.3 mph SW10.1 kmh SW 10.7 mph17.2 kmh 29.55 in1000.7 mb 0.00 in0.0 mm 0.00 in0.0 mm 0.00 in0.0 mm
05:45 PM 54.1°F12.3°C 49.4°F9.7°C 84% 7.7 mph S12.4 kmh S 10.7 mph17.2 kmh 29.54 in1000.3 mb 0.00 in0.0 mm 0.00 in0.0 mm 0.00 in0.0 mm
05:50 PM 54.1°F12.3°C 49.7°F9.8°C 85% 7.0 mph S11.3 kmh S 13.0 mph20.9 kmh 29.54 in1000.3 mb 0.00 in0.0 mm 0.00 in0.0 mm 0.00 in0.0 mm
05:55 PM 54.1°F12.3°C 49.7°F9.8°C 85% 10.4 mph S16.7 kmh S 16.8 mph27.0 kmh 29.54 in1000.3 mb 0.00 in0.0 mm 0.00 in0.0 mm 0.00 in0.0 mm
06:00 PM 54.3°F12.4°C 49.9°F9.9°C 85% 8.8 mph SSW14.2 kmh SSW 15.9 mph25.6 kmh 29.54 in1000.3 mb 0.00 in0.0 mm 0.00 in0.0 mm 0.00 in0.0 mm
06:05 PM 54.3°F12.4°C 49.9°F9.9°C 85% 7.6 mph S12.2 kmh S 13.0 mph20.9 kmh 29.54 in1000.3 mb 0.00 in0.0 mm 0.00 in0.0 mm 0.00 in0.0 mm
06:10 PM 54.4°F12.4°C 50.0°F10.0°C 85% 9.2 mph S14.8 kmh S 15.2 mph24.5 kmh 29.53 in1000.0 mb 0.00 in0.0 mm 0.00 in0.0 mm 0.00 in0.0 mm
06:15 PM 54.5°F12.5°C 50.1°F10.1°C 85% 11.6 mph SSW18.7 kmh SSW 16.8 mph27.0 kmh 29.53 in1000.0 mb 0.00 in0.0 mm 0.00 in0.0 mm 0.00 in0.0 mm
06:20 PM 54.6°F12.6°C 49.9°F9.9°C 84% 11.5 mph SSW18.5 kmh SSW 18.3 mph29.5 kmh 29.53 in1000.0 mb 0.00 in0.0 mm 0.00 in0.0 mm 0.00 in0.0 mm
06:25 PM 54.7°F12.6°C 49.9°F9.9°C 84% 11.3 mph SSW18.2 kmh SSW 15.2 mph24.5 kmh 29.53 in1000.0 mb 0.00 in0.0 mm 0.00 in0.0 mm 0.00 in0.0 mm
06:30 PM 54.7°F12.6°C 49.9°F9.9°C 84% 14.3 mph S23.0 kmh S 20.6 mph33.2 kmh 29.53 in1000.0 mb 0.00 in0.0 mm 0.00 in0.0 mm 0.00 in0.0 mm
06:35 PM 54.7°F12.6°C 49.9°F9.9°C 84% 10.5 mph S16.9 kmh S 18.3 mph29.5 kmh 29.52 in999.7 mb 0.00 in0.0 mm 0.00 in0.0 mm 0.00 in0.0 mm
06:40 PM 54.7°F12.6°C 49.9°F9.9°C 84% 13.0 mph S20.9 kmh S 18.3 mph29.5 kmh 29.52 in999.7 mb 0.00 in0.0 mm 0.00 in0.0 mm 0.00 in0.0 mm
06:45 PM 54.8°F12.7°C 49.3°F9.6°C 81% 12.7 mph S20.4 kmh S 20.6 mph33.2 kmh 29.52 in999.7 mb 0.00 in0.0 mm 0.00 in0.0 mm 0.00 in0.0 mm
06:50 PM 54.9°F12.7°C 49.0°F9.4°C 80% 8.9 mph S14.3 kmh S 13.0 mph20.9 kmh 29.52 in999.7 mb 0.00 in0.0 mm 0.00 in0.0 mm 0.00 in0.0 mm
06:55 PM 54.9°F12.7°C 48.8°F9.3°C 80% 9.0 mph SSE14.5 kmh SSE 13.0 mph20.9 kmh 29.52 in999.7 mb 0.00 in0.0 mm 0.00 in0.0 mm 0.00 in0.0 mm
07:00 PM 55.0°F12.8°C 48.9°F9.4°C 80% 8.1 mph SE13.0 kmh SE 12.1 mph19.5 kmh 29.52 in999.7 mb 0.00 in0.0 mm 0.00 in0.0 mm 0.00 in0.0 mm
07:05 PM 55.0°F12.8°C 49.0°F9.4°C 80% 8.3 mph S13.4 kmh S 10.7 mph17.2 kmh 29.52 in999.7 mb 0.00 in0.0 mm 0.00 in0.0 mm 0.00 in0.0 mm
07:10 PM 55.0°F12.8°C 49.0°F9.4°C 80% 5.9 mph SSW9.5 kmh SSW 9.8 mph15.8 kmh 29.52 in999.7 mb 0.00 in0.0 mm 0.00 in0.0 mm 0.00 in0.0 mm
07:15 PM 55.0°F12.8°C 49.0°F9.4°C 80% 5.9 mph S9.5 kmh S 10.7 mph17.2 kmh 29.52 in999.7 mb 0.00 in0.0 mm 0.00 in0.0 mm 0.00 in0.0 mm
07:20 PM 55.0°F12.8°C 49.0°F9.4°C 80% 7.7 mph SSE12.4 kmh SSE 12.1 mph19.5 kmh 29.52 in999.7 mb 0.00 in0.0 mm 0.00 in0.0 mm 0.00 in0.0 mm
07:25 PM 55.1°F12.8°C 49.0°F9.4°C 80% 9.2 mph S14.8 kmh S 15.9 mph25.6 kmh 29.52 in999.7 mb 0.00 in0.0 mm 0.00 in0.0 mm 0.00 in0.0 mm
07:30 PM 55.2°F12.9°C 49.2°F9.6°C 80% 8.4 mph SSE13.5 kmh SSE 13.6 mph21.9 kmh 29.52 in999.7 mb 0.00 in0.0 mm 0.00 in0.0 mm 0.00 in0.0 mm
07:35 PM 55.2°F12.9°C 49.2°F9.6°C 80% 7.9 mph SSW12.7 kmh SSW 13.6 mph21.9 kmh 29.52 in999.7 mb 0.00 in0.0 mm 0.00 in0.0 mm 0.00 in0.0 mm
07:40 PM 55.2°F12.9°C 49.1°F9.5°C 80% 9.2 mph S14.8 kmh S 15.9 mph25.6 kmh 29.51 in999.3 mb 0.00 in0.0 mm 0.00 in0.0 mm 0.00 in0.0 mm
07:45 PM 55.2°F12.9°C 48.8°F9.3°C 79% 11.7 mph SSW18.8 kmh SSW 21.3 mph34.3 kmh 29.52 in999.7 mb 0.00 in0.0 mm 0.00 in0.0 mm 0.00 in0.0 mm
07:50 PM 55.3°F12.9°C 48.9°F9.4°C 79% 12.9 mph S20.8 kmh S 19.0 mph30.6 kmh 29.52 in999.7 mb 0.00 in0.0 mm 0.00 in0.0 mm 0.00 in0.0 mm
07:55 PM 55.5°F13.1°C 49.1°F9.5°C 79% 11.2 mph S18.0 kmh S 16.8 mph27.0 kmh 29.52 in999.7 mb 0.00 in0.0 mm 0.00 in0.0 mm 0.00 in0.0 mm
08:00 PM 55.6°F13.1°C 48.8°F9.3°C 78% 10.8 mph SW17.4 kmh SW 15.2 mph24.5 kmh 29.52 in999.7 mb 0.00 in0.0 mm 0.00 in0.0 mm 0.00 in0.0 mm
08:05 PM 55.6°F13.1°C 48.8°F9.3°C 78% 11.4 mph S18.3 kmh S 13.0 mph20.9 kmh 29.52 in999.7 mb 0.00 in0.0 mm 0.00 in0.0 mm 0.00 in0.0 mm
08:10 PM 55.5°F13.1°C 48.7°F9.3°C 78% 10.4 mph SSW16.7 kmh SSW 16.8 mph27.0 kmh 29.51 in999.3 mb 0.00 in0.0 mm 0.00 in0.0 mm 0.00 in0.0 mm
08:15 PM 55.4°F13.0°C 48.7°F9.3°C 78% 10.9 mph SW17.5 kmh SW 15.2 mph24.5 kmh 29.51 in999.3 mb 0.00 in0.0 mm 0.00 in0.0 mm 0.00 in0.0 mm
08:20 PM 55.4°F13.0°C 48.7°F9.3°C 78% 9.7 mph S15.6 kmh S 13.6 mph21.9 kmh 29.51 in999.3 mb 0.00 in0.0 mm 0.00 in0.0 mm 0.00 in0.0 mm
08:25 PM 55.5°F13.1°C 48.7°F9.3°C 78% 8.7 mph S14.0 kmh S 13.6 mph21.9 kmh 29.51 in999.3 mb 0.00 in0.0 mm 0.00 in0.0 mm 0.00 in0.0 mm
08:30 PM 55.6°F13.1°C 48.9°F9.4°C 78% 9.4 mph S15.1 kmh S 15.9 mph25.6 kmh 29.51 in999.3 mb 0.00 in0.0 mm 0.00 in0.0 mm 0.00 in0.0 mm
08:35 PM 55.8°F13.2°C 49.0°F9.4°C 78% 11.0 mph S17.7 kmh S 15.9 mph25.6 kmh 29.50 in999.0 mb 0.00 in0.0 mm 0.00 in0.0 mm 0.00 in0.0 mm
08:40 PM 55.9°F13.3°C 49.1°F9.5°C 78% 12.2 mph S19.6 kmh S 17.4 mph28.0 kmh 29.51 in999.3 mb 0.00 in0.0 mm 0.00 in0.0 mm 0.00 in0.0 mm
08:45 PM 56.1°F13.4°C 49.0°F9.4°C 77% 11.2 mph SSW18.0 kmh SSW 17.4 mph28.0 kmh 29.51 in999.3 mb 0.00 in0.0 mm 0.00 in0.0 mm 0.00 in0.0 mm
08:50 PM 56.1°F13.4°C 48.9°F9.4°C 77% 9.0 mph S14.5 kmh S 15.2 mph24.5 kmh 29.51 in999.3 mb 0.00 in0.0 mm 0.00 in0.0 mm 0.00 in0.0 mm
08:55 PM 56.2°F13.4°C 48.7°F9.3°C 76% 9.7 mph S15.6 kmh S 16.8 mph27.0 kmh 29.51 in999.3 mb 0.00 in0.0 mm 0.00 in0.0 mm 0.00 in0.0 mm
09:00 PM 56.2°F13.4°C 48.7°F9.3°C 76% 7.6 mph S12.2 kmh S 12.1 mph19.5 kmh 29.50 in999.0 mb 0.00 in0.0 mm 0.00 in0.0 mm 0.00 in0.0 mm
09:05 PM 56.1°F13.4°C 48.7°F9.3°C 76% 9.7 mph SSE15.6 kmh SSE 12.1 mph19.5 kmh 29.50 in999.0 mb 0.00 in0.0 mm 0.00 in0.0 mm 0.00 in0.0 mm
09:10 PM 56.1°F13.4°C 48.7°F9.3°C 76% 7.9 mph S12.7 kmh S 13.0 mph20.9 kmh 29.50 in999.0 mb 0.00 in0.0 mm 0.00 in0.0 mm 0.00 in0.0 mm
09:15 PM 56.0°F13.3°C 48.6°F9.2°C 76% 9.3 mph S15.0 kmh S 13.0 mph20.9 kmh 29.50 in999.0 mb 0.00 in0.0 mm 0.00 in0.0 mm 0.00 in0.0 mm
09:20 PM 55.9°F13.3°C 48.5°F9.2°C 76% 9.5 mph SSW15.3 kmh SSW 14.5 mph23.3 kmh 29.50 in999.0 mb 0.00 in0.0 mm 0.00 in0.0 mm 0.00 in0.0 mm
09:25 PM 55.9°F13.3°C 48.5°F9.2°C 76% 7.9 mph SSW12.7 kmh SSW 12.1 mph19.5 kmh 29.50 in999.0 mb 0.00 in0.0 mm 0.00 in0.0 mm 0.00 in0.0 mm
09:30 PM 55.9°F13.3°C 48.4°F9.1°C 76% 9.5 mph S15.3 kmh S 13.6 mph21.9 kmh 29.50 in999.0 mb 0.00 in0.0 mm 0.00 in0.0 mm 0.00 in0.0 mm
09:35 PM 55.9°F13.3°C 48.5°F9.2°C 76% 9.0 mph SSW14.5 kmh SSW 13.0 mph20.9 kmh 29.50 in999.0 mb 0.00 in0.0 mm 0.00 in0.0 mm 0.00 in0.0 mm
09:40 PM 56.0°F13.3°C 48.5°F9.2°C 76% 10.5 mph SW16.9 kmh SW 22.1 mph35.6 kmh 29.50 in999.0 mb 0.00 in0.0 mm 0.00 in0.0 mm 0.00 in0.0 mm
09:45 PM 56.1°F13.4°C 48.7°F9.3°C 76% 12.0 mph S19.3 kmh S 15.9 mph25.6 kmh 29.50 in999.0 mb 0.00 in0.0 mm 0.00 in0.0 mm 0.00 in0.0 mm
09:50 PM 56.4°F13.6°C 48.6°F9.2°C 75% 13.1 mph S21.1 kmh S 21.3 mph34.3 kmh 29.50 in999.0 mb 0.00 in0.0 mm 0.00 in0.0 mm 0.00 in0.0 mm
09:55 PM 56.8°F13.8°C 48.8°F9.3°C 75% 11.2 mph SSW18.0 kmh SSW 15.9 mph25.6 kmh 29.50 in999.0 mb 0.00 in0.0 mm 0.00 in0.0 mm 0.00 in0.0 mm
10:00 PM 57.2°F14.0°C 48.9°F9.4°C 74% 13.4 mph S21.6 kmh S 23.5 mph37.8 kmh 29.49 in998.6 mb 0.00 in0.0 mm 0.00 in0.0 mm 0.00 in0.0 mm
10:05 PM 57.4°F14.1°C 48.8°F9.3°C 73% 10.7 mph SSW17.2 kmh SSW 14.5 mph23.3 kmh 29.49 in998.6 mb 0.00 in0.0 mm 0.00 in0.0 mm 0.00 in0.0 mm
10:10 PM 57.7°F14.3°C 48.9°F9.4°C 72% 11.7 mph S18.8 kmh S 17.4 mph28.0 kmh 29.49 in998.6 mb 0.00 in0.0 mm 0.00 in0.0 mm 0.00 in0.0 mm
10:15 PM 57.9°F14.4°C 48.9°F9.4°C 72% 11.2 mph S18.0 kmh S 17.4 mph28.0 kmh 29.48 in998.3 mb 0.00 in0.0 mm 0.00 in0.0 mm 0.00 in0.0 mm
10:20 PM 57.8°F14.3°C 48.8°F9.3°C 72% 12.0 mph S19.3 kmh S 16.8 mph27.0 kmh 29.48 in998.3 mb 0.00 in0.0 mm 0.00 in0.0 mm 0.00 in0.0 mm
10:25 PM 57.7°F14.3°C 48.7°F9.3°C 72% 8.6 mph SSE13.8 kmh SSE 11.4 mph18.3 kmh 29.49 in998.6 mb 0.00 in0.0 mm 0.00 in0.0 mm 0.00 in0.0 mm
10:30 PM 57.6°F14.2°C 48.6°F9.2°C 72% 9.1 mph SSE14.6 kmh SSE 13.6 mph21.9 kmh 29.49 in998.6 mb 0.00 in0.0 mm 0.00 in0.0 mm 0.00 in0.0 mm
10:35 PM 57.4°F14.1°C 48.5°F9.2°C 72% 7.5 mph S12.1 kmh S 12.1 mph19.5 kmh 29.50 in999.0 mb 0.00 in0.0 mm 0.00 in0.0 mm 0.00 in0.0 mm
10:40 PM 57.3°F14.1°C 48.7°F9.3°C 73% 5.3 mph S8.5 kmh S 10.7 mph17.2 kmh 29.50 in999.0 mb 0.00 in0.0 mm 0.00 in0.0 mm 0.00 in0.0 mm
10:45 PM 57.0°F13.9°C 48.4°F9.1°C 73% 7.2 mph S11.6 kmh S 11.4 mph18.3 kmh 29.50 in999.0 mb 0.00 in0.0 mm 0.00 in0.0 mm 0.00 in0.0 mm
10:50 PM 56.8°F13.8°C 48.2°F9.0°C 73% 7.5 mph S12.1 kmh S 13.0 mph20.9 kmh 29.49 in998.6 mb 0.00 in0.0 mm 0.00 in0.0 mm 0.00 in0.0 mm
10:55 PM 56.7°F13.7°C 48.5°F9.2°C 74% 7.4 mph S11.9 kmh S 10.7 mph17.2 kmh 29.49 in998.6 mb 0.00 in0.0 mm 0.00 in0.0 mm 0.00 in0.0 mm
11:00 PM 56.5°F13.6°C 48.3°F9.1°C 74% 6.5 mph S10.5 kmh S 9.2 mph14.8 kmh 29.49 in998.6 mb 0.00 in0.0 mm 0.00 in0.0 mm 0.00 in0.0 mm
11:05 PM 56.5°F13.6°C 48.3°F9.1°C 74% 6.0 mph S9.7 kmh S 8.3 mph13.4 kmh 29.49 in998.6 mb 0.00 in0.0 mm 0.00 in0.0 mm 0.00 in0.0 mm
11:10 PM 56.5°F13.6°C 48.3°F9.1°C 74% 5.3 mph SW8.5 kmh SW 9.8 mph15.8 kmh 29.49 in998.6 mb 0.00 in0.0 mm 0.00 in0.0 mm 0.00 in0.0 mm
11:15 PM 56.5°F13.6°C 48.3°F9.1°C 74% 4.7 mph S7.6 kmh S 6.9 mph11.1 kmh 29.49 in998.6 mb 0.00 in0.0 mm 0.00 in0.0 mm 0.00 in0.0 mm
11:20 PM 56.4°F13.6°C 48.2°F9.0°C 74% 4.3 mph SE6.9 kmh SE 9.2 mph14.8 kmh 29.48 in998.3 mb 0.00 in0.0 mm 0.00 in0.0 mm 0.00 in0.0 mm
11:25 PM 56.4°F13.6°C 48.2°F9.0°C 74% 6.4 mph S10.3 kmh S 10.7 mph17.2 kmh 29.48 in998.3 mb 0.00 in0.0 mm 0.00 in0.0 mm 0.00 in0.0 mm
11:30 PM 56.5°F13.6°C 48.3°F9.1°C 74% 6.3 mph S10.1 kmh S 10.7 mph17.2 kmh 29.48 in998.3 mb 0.00 in0.0 mm 0.00 in0.0 mm 0.00 in0.0 mm
11:35 PM 56.6°F13.7°C 48.4°F9.1°C 74% 6.6 mph SSE10.6 kmh SSE 10.7 mph17.2 kmh 29.48 in998.3 mb 0.00 in0.0 mm 0.00 in0.0 mm 0.00 in0.0 mm
11:40 PM 56.7°F13.7°C 48.5°F9.2°C 74% 5.3 mph SSW8.5 kmh SSW 8.3 mph13.4 kmh 29.48 in998.3 mb 0.00 in0.0 mm 0.00 in0.0 mm 0.00 in0.0 mm
11:45 PM 56.7°F13.7°C 48.5°F9.2°C 74% 7.4 mph S11.9 kmh S 10.7 mph17.2 kmh 29.48 in998.3 mb 0.00 in0.0 mm 0.00 in0.0 mm 0.00 in0.0 mm
11:50 PM 56.7°F13.7°C 48.5°F9.2°C 74% 8.8 mph S14.2 kmh S 15.2 mph24.5 kmh 29.48 in998.3 mb 0.00 in0.0 mm 0.00 in0.0 mm 0.00 in0.0 mm
11:55 PM 56.7°F13.7°C 48.5°F9.2°C 74% 4.7 mph SW7.6 kmh SW 7.6 mph12.2 kmh 29.47 in998.0 mb 0.00 in0.0 mm 0.00 in0.0 mm 0.00 in0.0 mm